sensor_id;sensor_type;location;lat;lon;timestamp;P1;durP1;ratioP1;P2;durP2;ratioP2
66020;SDS011;52789;59.980;30.346;2023-11-21T00:01:17;39.87;;;23.83;;
66020;SDS011;52789;59.980;30.346;2023-11-21T00:03:43;41.97;;;24.00;;
66020;SDS011;52789;59.980;30.346;2023-11-21T00:06:09;43.10;;;24.87;;
66020;SDS011;52789;59.980;30.346;2023-11-21T00:08:35;39.17;;;22.40;;
66020;SDS011;52789;59.980;30.346;2023-11-21T00:11:01;38.20;;;22.85;;
66020;SDS011;52789;59.980;30.346;2023-11-21T00:13:27;45.30;;;24.45;;
66020;SDS011;52789;59.980;30.346;2023-11-21T00:15:53;36.47;;;22.23;;
66020;SDS011;52789;59.980;30.346;2023-11-21T00:18:18;34.90;;;21.43;;
66020;SDS011;52789;59.980;30.346;2023-11-21T00:20:44;38.83;;;21.37;;
66020;SDS011;52789;59.980;30.346;2023-11-21T00:23:10;43.73;;;23.23;;
66020;SDS011;52789;59.980;30.346;2023-11-21T00:25:35;43.77;;;23.47;;
66020;SDS011;52789;59.980;30.346;2023-11-21T00:28:02;39.50;;;23.87;;
66020;SDS011;52789;59.980;30.346;2023-11-21T00:30:28;42.75;;;22.48;;
66020;SDS011;52789;59.980;30.346;2023-11-21T00:32:55;41.90;;;24.10;;
66020;SDS011;52789;59.980;30.346;2023-11-21T00:35:20;47.10;;;22.03;;
66020;SDS011;52789;59.980;30.346;2023-11-21T00:37:46;41.50;;;21.77;;
66020;SDS011;52789;59.980;30.346;2023-11-21T00:40:11;51.80;;;25.13;;
66020;SDS011;52789;59.980;30.346;2023-11-21T00:42:37;51.97;;;23.50;;
66020;SDS011;52789;59.980;30.346;2023-11-21T00:45:03;42.43;;;22.37;;
66020;SDS011;52789;59.980;30.346;2023-11-21T00:47:32;60.53;;;24.97;;
66020;SDS011;52789;59.980;30.346;2023-11-21T00:49:57;45.47;;;23.03;;
66020;SDS011;52789;59.980;30.346;2023-11-21T00:52:23;44.83;;;24.00;;
66020;SDS011;52789;59.980;30.346;2023-11-21T00:54:48;40.77;;;24.10;;
66020;SDS011;52789;59.980;30.346;2023-11-21T00:57:15;47.00;;;25.63;;
66020;SDS011;52789;59.980;30.346;2023-11-21T00:59:40;39.40;;;22.80;;
66020;SDS011;52789;59.980;30.346;2023-11-21T01:02:06;46.53;;;24.90;;
66020;SDS011;52789;59.980;30.346;2023-11-21T01:04:35;42.55;;;24.48;;
66020;SDS011;52789;59.980;30.346;2023-11-21T01:07:00;40.17;;;22.40;;
66020;SDS011;52789;59.980;30.346;2023-11-21T01:09:26;41.73;;;24.87;;
66020;SDS011;52789;59.980;30.346;2023-11-21T01:11:53;40.95;;;23.20;;
66020;SDS011;52789;59.980;30.346;2023-11-21T01:14:19;46.80;;;24.83;;
66020;SDS011;52789;59.980;30.346;2023-11-21T01:16:44;39.67;;;22.17;;
66020;SDS011;52789;59.980;30.346;2023-11-21T01:19:10;47.07;;;25.23;;
66020;SDS011;52789;59.980;30.346;2023-11-21T01:21:35;39.70;;;20.43;;
66020;SDS011;52789;59.980;30.346;2023-11-21T01:24:01;41.37;;;22.80;;
66020;SDS011;52789;59.980;30.346;2023-11-21T01:26:27;40.22;;;19.10;;
66020;SDS011;52789;59.980;30.346;2023-11-21T01:28:56;39.23;;;21.10;;
66020;SDS011;52789;59.980;30.346;2023-11-21T01:31:22;29.80;;;17.35;;
66020;SDS011;52789;59.980;30.346;2023-11-21T01:33:47;30.50;;;18.03;;
66020;SDS011;52789;59.980;30.346;2023-11-21T01:36:13;27.92;;;16.73;;
66020;SDS011;52789;59.980;30.346;2023-11-21T01:38:39;28.23;;;18.37;;
66020;SDS011;52789;59.980;30.346;2023-11-21T01:41:05;25.77;;;17.03;;
66020;SDS011;52789;59.980;30.346;2023-11-21T01:43:31;28.50;;;16.05;;
66020;SDS011;52789;59.980;30.346;2023-11-21T01:45:57;25.23;;;15.67;;
66020;SDS011;52789;59.980;30.346;2023-11-21T01:48:24;26.80;;;16.30;;
66020;SDS011;52789;59.980;30.346;2023-11-21T01:50:50;22.48;;;14.88;;
66020;SDS011;52789;59.980;30.346;2023-11-21T01:53:16;27.02;;;14.73;;
66020;SDS011;52789;59.980;30.346;2023-11-21T01:55:42;24.07;;;15.43;;
66020;SDS011;52789;59.980;30.346;2023-11-21T01:58:09;24.50;;;13.98;;
66020;SDS011;52789;59.980;30.346;2023-11-21T02:00:36;23.65;;;14.40;;
66020;SDS011;52789;59.980;30.346;2023-11-21T02:03:03;25.00;;;17.13;;
66020;SDS011;52789;59.980;30.346;2023-11-21T02:05:29;25.20;;;14.97;;
66020;SDS011;52789;59.980;30.346;2023-11-21T02:07:54;23.47;;;14.03;;
66020;SDS011;52789;59.980;30.346;2023-11-21T02:10:21;28.75;;;16.42;;
66020;SDS011;52789;59.980;30.346;2023-11-21T02:12:51;26.20;;;15.27;;
66020;SDS011;52789;59.980;30.346;2023-11-21T02:15:17;27.15;;;15.48;;
66020;SDS011;52789;59.980;30.346;2023-11-21T02:17:48;25.25;;;16.30;;
66020;SDS011;52789;59.980;30.346;2023-11-21T02:20:18;24.75;;;16.52;;
66020;SDS011;52789;59.980;30.346;2023-11-21T02:22:51;27.70;;;15.68;;
66020;SDS011;52789;59.980;30.346;2023-11-21T02:25:25;26.65;;;17.20;;
66020;SDS011;52789;59.980;30.346;2023-11-21T02:27:58;26.92;;;16.10;;
66020;SDS011;52789;59.980;30.346;2023-11-21T02:30:26;24.48;;;15.75;;
66020;SDS011;52789;59.980;30.346;2023-11-21T02:32:53;23.50;;;15.35;;
66020;SDS011;52789;59.980;30.346;2023-11-21T02:35:19;23.80;;;15.52;;
66020;SDS011;52789;59.980;30.346;2023-11-21T02:37:51;22.45;;;15.43;;
66020;SDS011;52789;59.980;30.346;2023-11-21T02:40:17;23.88;;;15.35;;
66020;SDS011;52789;59.980;30.346;2023-11-21T02:42:44;28.90;;;16.10;;
66020;SDS011;52789;59.980;30.346;2023-11-21T02:45:10;22.45;;;13.95;;
66020;SDS011;52789;59.980;30.346;2023-11-21T02:47:42;25.98;;;15.70;;
66020;SDS011;52789;59.980;30.346;2023-11-21T02:50:08;23.30;;;14.35;;
66020;SDS011;52789;59.980;30.346;2023-11-21T02:52:34;20.73;;;13.97;;
66020;SDS011;52789;59.980;30.346;2023-11-21T02:55:01;23.95;;;15.93;;
66020;SDS011;52789;59.980;30.346;2023-11-21T02:57:27;21.67;;;13.45;;
66020;SDS011;52789;59.980;30.346;2023-11-21T02:59:53;23.60;;;13.80;;
66020;SDS011;52789;59.980;30.346;2023-11-21T03:02:19;22.50;;;13.98;;
66020;SDS011;52789;59.980;30.346;2023-11-21T03:04:45;24.37;;;15.37;;
66020;SDS011;52789;59.980;30.346;2023-11-21T03:07:13;24.60;;;14.55;;
66020;SDS011;52789;59.980;30.346;2023-11-21T03:09:38;24.87;;;15.03;;
66020;SDS011;52789;59.980;30.346;2023-11-21T03:12:04;31.43;;;16.70;;
66020;SDS011;52789;59.980;30.346;2023-11-21T03:14:30;23.80;;;14.57;;
66020;SDS011;52789;59.980;30.346;2023-11-21T03:16:56;24.35;;;14.88;;
66020;SDS011;52789;59.980;30.346;2023-11-21T03:19:22;26.67;;;16.73;;
66020;SDS011;52789;59.980;30.346;2023-11-21T03:21:48;23.60;;;14.23;;
66020;SDS011;52789;59.980;30.346;2023-11-21T03:24:14;22.43;;;14.07;;
66020;SDS011;52789;59.980;30.346;2023-11-21T03:26:44;22.35;;;14.50;;
66020;SDS011;52789;59.980;30.346;2023-11-21T03:29:11;27.50;;;16.65;;
66020;SDS011;52789;59.980;30.346;2023-11-21T03:31:37;26.07;;;15.40;;
66020;SDS011;52789;59.980;30.346;2023-11-21T03:34:03;28.47;;;17.60;;
66020;SDS011;52789;59.980;30.346;2023-11-21T03:36:29;27.80;;;17.43;;
66020;SDS011;52789;59.980;30.346;2023-11-21T03:38:54;21.00;;;13.33;;
66020;SDS011;52789;59.980;30.346;2023-11-21T03:41:20;23.58;;;14.18;;
66020;SDS011;52789;59.980;30.346;2023-11-21T03:43:46;24.33;;;13.80;;
66020;SDS011;52789;59.980;30.346;2023-11-21T03:46:11;19.40;;;12.97;;
66020;SDS011;52789;59.980;30.346;2023-11-21T03:48:37;20.57;;;13.77;;
66020;SDS011;52789;59.980;30.346;2023-11-21T03:51:03;19.45;;;13.98;;
66020;SDS011;52789;59.980;30.346;2023-11-21T03:53:29;20.77;;;13.10;;
66020;SDS011;52789;59.980;30.346;2023-11-21T03:55:54;19.53;;;12.13;;
66020;SDS011;52789;59.980;30.346;2023-11-21T03:58:20;20.27;;;12.83;;
66020;SDS011;52789;59.980;30.346;2023-11-21T04:00:46;18.47;;;11.63;;
66020;SDS011;52789;59.980;30.346;2023-11-21T04:03:14;18.20;;;12.07;;
66020;SDS011;52789;59.980;30.346;2023-11-21T04:05:40;23.35;;;12.73;;
66020;SDS011;52789;59.980;30.346;2023-11-21T04:08:06;17.70;;;11.67;;
66020;SDS011;52789;59.980;30.346;2023-11-21T04:10:32;18.70;;;12.00;;
66020;SDS011;52789;59.980;30.346;2023-11-21T04:13:00;17.42;;;11.32;;
66020;SDS011;52789;59.980;30.346;2023-11-21T04:15:26;15.15;;;10.77;;
66020;SDS011;52789;59.980;30.346;2023-11-21T04:17:52;17.70;;;11.27;;
66020;SDS011;52789;59.980;30.346;2023-11-21T04:20:18;14.53;;;11.50;;
66020;SDS011;52789;59.980;30.346;2023-11-21T04:22:44;16.93;;;11.60;;
66020;SDS011;52789;59.980;30.346;2023-11-21T04:25:10;15.80;;;10.20;;
66020;SDS011;52789;59.980;30.346;2023-11-21T04:27:39;17.98;;;10.80;;
66020;SDS011;52789;59.980;30.346;2023-11-21T04:30:05;17.43;;;10.73;;
66020;SDS011;52789;59.980;30.346;2023-11-21T04:32:35;18.58;;;11.32;;
66020;SDS011;52789;59.980;30.346;2023-11-21T04:35:00;19.30;;;11.77;;
66020;SDS011;52789;59.980;30.346;2023-11-21T04:37:27;18.75;;;12.70;;
66020;SDS011;52789;59.980;30.346;2023-11-21T04:39:55;19.60;;;12.27;;
66020;SDS011;52789;59.980;30.346;2023-11-21T04:42:21;18.48;;;11.23;;
66020;SDS011;52789;59.980;30.346;2023-11-21T04:44:47;18.83;;;11.37;;
66020;SDS011;52789;59.980;30.346;2023-11-21T04:47:14;16.20;;;9.90;;
66020;SDS011;52789;59.980;30.346;2023-11-21T04:49:41;17.27;;;10.20;;
66020;SDS011;52789;59.980;30.346;2023-11-21T04:52:08;17.17;;;11.88;;
66020;SDS011;52789;59.980;30.346;2023-11-21T04:54:35;19.15;;;10.50;;
66020;SDS011;52789;59.980;30.346;2023-11-21T04:57:01;16.45;;;10.18;;
66020;SDS011;52789;59.980;30.346;2023-11-21T04:59:27;17.20;;;10.10;;
66020;SDS011;52789;59.980;30.346;2023-11-21T05:01:53;22.27;;;12.37;;
66020;SDS011;52789;59.980;30.346;2023-11-21T05:04:19;15.32;;;10.25;;
66020;SDS011;52789;59.980;30.346;2023-11-21T05:06:47;24.50;;;10.60;;
66020;SDS011;52789;59.980;30.346;2023-11-21T05:09:13;16.27;;;9.67;;
66020;SDS011;52789;59.980;30.346;2023-11-21T05:11:39;17.60;;;11.93;;
66020;SDS011;52789;59.980;30.346;2023-11-21T05:14:06;18.00;;;12.35;;
66020;SDS011;52789;59.980;30.346;2023-11-21T05:16:32;24.25;;;11.70;;
66020;SDS011;52789;59.980;30.346;2023-11-21T05:18:58;19.90;;;10.68;;
66020;SDS011;52789;59.980;30.346;2023-11-21T05:21:26;21.45;;;12.52;;
66020;SDS011;52789;59.980;30.346;2023-11-21T05:23:52;21.48;;;12.63;;
66020;SDS011;52789;59.980;30.346;2023-11-21T05:26:18;17.73;;;10.10;;
66020;SDS011;52789;59.980;30.346;2023-11-21T05:28:46;19.10;;;11.55;;
66020;SDS011;52789;59.980;30.346;2023-11-21T05:31:11;18.88;;;11.18;;
66020;SDS011;52789;59.980;30.346;2023-11-21T05:33:37;18.47;;;11.77;;
66020;SDS011;52789;59.980;30.346;2023-11-21T05:36:03;18.83;;;11.10;;
66020;SDS011;52789;59.980;30.346;2023-11-21T05:38:29;19.37;;;11.37;;
66020;SDS011;52789;59.980;30.346;2023-11-21T05:40:55;23.20;;;11.83;;
66020;SDS011;52789;59.980;30.346;2023-11-21T05:43:20;18.20;;;11.23;;
66020;SDS011;52789;59.980;30.346;2023-11-21T05:45:46;17.33;;;10.87;;
66020;SDS011;52789;59.980;30.346;2023-11-21T05:48:12;18.57;;;11.00;;
66020;SDS011;52789;59.980;30.346;2023-11-21T05:50:37;18.47;;;11.80;;
66020;SDS011;52789;59.980;30.346;2023-11-21T05:53:03;17.07;;;11.47;;
66020;SDS011;52789;59.980;30.346;2023-11-21T05:55:29;16.70;;;9.30;;
66020;SDS011;52789;59.980;30.346;2023-11-21T05:57:54;17.80;;;10.63;;
66020;SDS011;52789;59.980;30.346;2023-11-21T06:00:20;15.13;;;10.20;;
66020;SDS011;52789;59.980;30.346;2023-11-21T06:02:51;15.57;;;10.07;;
66020;SDS011;52789;59.980;30.346;2023-11-21T06:05:19;20.02;;;12.02;;
66020;SDS011;52789;59.980;30.346;2023-11-21T06:07:45;17.50;;;10.15;;
66020;SDS011;52789;59.980;30.346;2023-11-21T06:10:11;17.47;;;11.30;;
66020;SDS011;52789;59.980;30.346;2023-11-21T06:12:39;19.60;;;9.55;;
66020;SDS011;52789;59.980;30.346;2023-11-21T06:15:08;16.23;;;9.48;;
66020;SDS011;52789;59.980;30.346;2023-11-21T06:17:35;13.25;;;8.63;;
66020;SDS011;52789;59.980;30.346;2023-11-21T06:20:08;18.67;;;9.75;;
66020;SDS011;52789;59.980;30.346;2023-11-21T06:22:36;15.57;;;8.80;;
66020;SDS011;52789;59.980;30.346;2023-11-21T06:25:01;13.82;;;8.48;;
66020;SDS011;52789;59.980;30.346;2023-11-21T06:27:29;15.55;;;9.45;;
66020;SDS011;52789;59.980;30.346;2023-11-21T06:29:54;16.77;;;10.10;;
66020;SDS011;52789;59.980;30.346;2023-11-21T06:32:20;15.07;;;9.77;;
66020;SDS011;52789;59.980;30.346;2023-11-21T06:34:47;14.25;;;8.75;;
66020;SDS011;52789;59.980;30.346;2023-11-21T06:37:14;13.55;;;8.35;;
66020;SDS011;52789;59.980;30.346;2023-11-21T06:39:40;13.70;;;9.18;;
66020;SDS011;52789;59.980;30.346;2023-11-21T06:42:06;12.70;;;8.60;;
66020;SDS011;52789;59.980;30.346;2023-11-21T06:44:32;14.07;;;8.80;;
66020;SDS011;52789;59.980;30.346;2023-11-21T06:47:00;11.77;;;8.27;;
66020;SDS011;52789;59.980;30.346;2023-11-21T06:49:26;11.93;;;8.03;;
66020;SDS011;52789;59.980;30.346;2023-11-21T06:51:51;14.53;;;9.13;;
66020;SDS011;52789;59.980;30.346;2023-11-21T06:54:18;13.32;;;8.63;;
66020;SDS011;52789;59.980;30.346;2023-11-21T06:56:44;14.17;;;9.53;;
66020;SDS011;52789;59.980;30.346;2023-11-21T06:59:09;13.37;;;8.27;;
66020;SDS011;52789;59.980;30.346;2023-11-21T07:01:36;12.07;;;7.85;;
66020;SDS011;52789;59.980;30.346;2023-11-21T07:04:07;11.63;;;8.23;;
66020;SDS011;52789;59.980;30.346;2023-11-21T07:06:34;13.10;;;7.53;;
66020;SDS011;52789;59.980;30.346;2023-11-21T07:09:00;11.82;;;7.57;;
66020;SDS011;52789;59.980;30.346;2023-11-21T07:11:26;12.70;;;8.23;;
66020;SDS011;52789;59.980;30.346;2023-11-21T07:13:52;9.93;;;6.55;;
66020;SDS011;52789;59.980;30.346;2023-11-21T07:16:18;11.13;;;7.93;;
66020;SDS011;52789;59.980;30.346;2023-11-21T07:18:44;12.50;;;7.70;;
66020;SDS011;52789;59.980;30.346;2023-11-21T07:21:10;9.65;;;6.80;;
66020;SDS011;52789;59.980;30.346;2023-11-21T07:23:37;11.55;;;7.57;;
66020;SDS011;52789;59.980;30.346;2023-11-21T07:26:03;13.73;;;7.93;;
66020;SDS011;52789;59.980;30.346;2023-11-21T07:28:37;9.63;;;7.32;;
66020;SDS011;52789;59.980;30.346;2023-11-21T07:31:02;8.02;;;5.45;;
66020;SDS011;52789;59.980;30.346;2023-11-21T07:33:28;10.07;;;6.88;;
66020;SDS011;52789;59.980;30.346;2023-11-21T07:35:54;9.80;;;5.90;;
66020;SDS011;52789;59.980;30.346;2023-11-21T07:38:19;8.27;;;5.70;;
66020;SDS011;52789;59.980;30.346;2023-11-21T07:40:45;9.87;;;6.90;;
66020;SDS011;52789;59.980;30.346;2023-11-21T07:43:10;9.47;;;6.27;;
66020;SDS011;52789;59.980;30.346;2023-11-21T07:45:36;9.33;;;6.77;;
66020;SDS011;52789;59.980;30.346;2023-11-21T07:48:02;10.10;;;6.93;;
66020;SDS011;52789;59.980;30.346;2023-11-21T07:50:30;11.25;;;6.90;;
66020;SDS011;52789;59.980;30.346;2023-11-21T07:52:56;15.40;;;6.33;;
66020;SDS011;52789;59.980;30.346;2023-11-21T07:55:23;10.20;;;6.72;;
66020;SDS011;52789;59.980;30.346;2023-11-21T07:57:50;9.23;;;6.70;;
66020;SDS011;52789;59.980;30.346;2023-11-21T08:00:15;10.90;;;6.60;;
66020;SDS011;52789;59.980;30.346;2023-11-21T08:02:41;11.13;;;6.33;;
66020;SDS011;52789;59.980;30.346;2023-11-21T08:05:08;10.37;;;6.50;;
66020;SDS011;52789;59.980;30.346;2023-11-21T08:07:34;10.32;;;6.50;;
66020;SDS011;52789;59.980;30.346;2023-11-21T08:09:59;9.83;;;6.13;;
66020;SDS011;52789;59.980;30.346;2023-11-21T08:12:25;8.57;;;6.23;;
66020;SDS011;52789;59.980;30.346;2023-11-21T08:14:53;14.57;;;7.03;;
66020;SDS011;52789;59.980;30.346;2023-11-21T08:17:18;9.40;;;6.37;;
66020;SDS011;52789;59.980;30.346;2023-11-21T08:19:45;8.93;;;6.85;;
66020;SDS011;52789;59.980;30.346;2023-11-21T08:22:17;9.97;;;6.40;;
66020;SDS011;52789;59.980;30.346;2023-11-21T08:24:45;13.52;;;7.03;;
66020;SDS011;52789;59.980;30.346;2023-11-21T08:27:12;9.48;;;5.97;;
66020;SDS011;52789;59.980;30.346;2023-11-21T08:32:07;11.45;;;6.78;;
66020;SDS011;52789;59.980;30.346;2023-11-21T08:34:32;11.67;;;7.03;;
66020;SDS011;52789;59.980;30.346;2023-11-21T08:36:58;13.80;;;7.00;;
66020;SDS011;52789;59.980;30.346;2023-11-21T08:39:24;9.53;;;6.57;;
66020;SDS011;52789;59.980;30.346;2023-11-21T08:41:50;10.47;;;7.17;;
66020;SDS011;52789;59.980;30.346;2023-11-21T08:44:16;8.57;;;6.00;;
66020;SDS011;52789;59.980;30.346;2023-11-21T08:46:43;10.65;;;5.65;;
66020;SDS011;52789;59.980;30.346;2023-11-21T08:49:11;10.43;;;6.07;;
66020;SDS011;52789;59.980;30.346;2023-11-21T08:51:37;9.68;;;5.53;;
66020;SDS011;52789;59.980;30.346;2023-11-21T08:54:03;8.82;;;6.47;;
66020;SDS011;52789;59.980;30.346;2023-11-21T08:56:32;6.88;;;4.65;;
66020;SDS011;52789;59.980;30.346;2023-11-21T08:58:58;8.07;;;6.20;;
66020;SDS011;52789;59.980;30.346;2023-11-21T09:01:27;9.40;;;4.63;;
66020;SDS011;52789;59.980;30.346;2023-11-21T09:03:59;13.52;;;4.85;;
66020;SDS011;52789;59.980;30.346;2023-11-21T09:06:24;7.37;;;5.60;;
66020;SDS011;52789;59.980;30.346;2023-11-21T09:08:50;6.93;;;5.07;;
66020;SDS011;52789;59.980;30.346;2023-11-21T09:11:16;10.13;;;5.77;;
66020;SDS011;52789;59.980;30.346;2023-11-21T09:13:42;6.60;;;5.32;;
66020;SDS011;52789;59.980;30.346;2023-11-21T09:16:08;5.43;;;3.97;;
66020;SDS011;52789;59.980;30.346;2023-11-21T09:18:33;6.60;;;4.60;;
66020;SDS011;52789;59.980;30.346;2023-11-21T09:20:59;5.80;;;4.40;;
66020;SDS011;52789;59.980;30.346;2023-11-21T09:23:25;7.93;;;5.40;;
66020;SDS011;52789;59.980;30.346;2023-11-21T09:25:50;5.97;;;4.33;;
66020;SDS011;52789;59.980;30.346;2023-11-21T09:28:18;11.05;;;6.75;;
66020;SDS011;52789;59.980;30.346;2023-11-21T09:30:43;13.68;;;5.70;;
66020;SDS011;52789;59.980;30.346;2023-11-21T09:33:09;9.53;;;6.33;;
66020;SDS011;52789;59.980;30.346;2023-11-21T09:35:38;14.50;;;7.25;;
66020;SDS011;52789;59.980;30.346;2023-11-21T09:38:04;13.70;;;7.80;;
66020;SDS011;52789;59.980;30.346;2023-11-21T09:40:35;9.45;;;6.45;;
66020;SDS011;52789;59.980;30.346;2023-11-21T09:43:00;10.33;;;6.73;;
66020;SDS011;52789;59.980;30.346;2023-11-21T09:45:36;11.95;;;6.72;;
66020;SDS011;52789;59.980;30.346;2023-11-21T09:48:04;10.18;;;7.32;;
66020;SDS011;52789;59.980;30.346;2023-11-21T09:50:34;9.60;;;7.15;;
66020;SDS011;52789;59.980;30.346;2023-11-21T09:53:17;11.82;;;8.10;;
66020;SDS011;52789;59.980;30.346;2023-11-21T09:55:46;12.35;;;7.85;;
66020;SDS011;52789;59.980;30.346;2023-11-21T09:58:14;10.45;;;6.90;;
66020;SDS011;52789;59.980;30.346;2023-11-21T10:00:43;16.90;;;8.65;;
66020;SDS011;52789;59.980;30.346;2023-11-21T10:03:10;10.63;;;7.20;;
66020;SDS011;52789;59.980;30.346;2023-11-21T10:05:37;19.42;;;8.35;;
66020;SDS011;52789;59.980;30.346;2023-11-21T10:08:04;14.50;;;7.53;;
66020;SDS011;52789;59.980;30.346;2023-11-21T10:10:35;12.00;;;7.57;;
66020;SDS011;52789;59.980;30.346;2023-11-21T10:13:03;13.15;;;8.25;;
66020;SDS011;52789;59.980;30.346;2023-11-21T10:15:35;18.25;;;8.82;;
66020;SDS011;52789;59.980;30.346;2023-11-21T10:18:02;13.95;;;9.13;;
66020;SDS011;52789;59.980;30.346;2023-11-21T10:20:29;13.23;;;8.05;;
66020;SDS011;52789;59.980;30.346;2023-11-21T10:25:23;20.97;;;10.17;;
66020;SDS011;52789;59.980;30.346;2023-11-21T10:27:49;12.97;;;8.37;;
66020;SDS011;52789;59.980;30.346;2023-11-21T10:30:17;13.65;;;8.38;;
66020;SDS011;52789;59.980;30.346;2023-11-21T10:32:43;13.48;;;7.57;;
66020;SDS011;52789;59.980;30.346;2023-11-21T10:35:09;14.20;;;9.18;;
66020;SDS011;52789;59.980;30.346;2023-11-21T10:37:37;18.17;;;8.57;;
66020;SDS011;52789;59.980;30.346;2023-11-21T10:40:06;17.40;;;9.60;;
66020;SDS011;52789;59.980;30.346;2023-11-21T10:42:38;11.52;;;7.10;;
66020;SDS011;52789;59.980;30.346;2023-11-21T10:45:04;14.63;;;8.25;;
66020;SDS011;52789;59.980;30.346;2023-11-21T10:47:49;10.60;;;6.82;;
66020;SDS011;52789;59.980;30.346;2023-11-21T10:52:44;14.83;;;7.40;;
66020;SDS011;52789;59.980;30.346;2023-11-21T10:55:21;11.35;;;7.10;;
66020;SDS011;52789;59.980;30.346;2023-11-21T10:57:49;9.93;;;6.85;;
66020;SDS011;52789;59.980;30.346;2023-11-21T11:00:19;9.20;;;6.70;;
66020;SDS011;52789;59.980;30.346;2023-11-21T11:02:50;12.27;;;7.15;;
66020;SDS011;52789;59.980;30.346;2023-11-21T11:05:19;11.55;;;8.43;;
66020;SDS011;52789;59.980;30.346;2023-11-21T11:07:47;15.30;;;9.02;;
66020;SDS011;52789;59.980;30.346;2023-11-21T11:10:19;15.10;;;7.95;;
66020;SDS011;52789;59.980;30.346;2023-11-21T11:12:51;13.98;;;8.60;;
66020;SDS011;52789;59.980;30.346;2023-11-21T11:15:19;11.65;;;7.65;;
66020;SDS011;52789;59.980;30.346;2023-11-21T11:17:45;11.38;;;6.85;;
66020;SDS011;52789;59.980;30.346;2023-11-21T11:20:12;12.32;;;7.50;;
66020;SDS011;52789;59.980;30.346;2023-11-21T11:22:44;13.63;;;8.80;;
66020;SDS011;52789;59.980;30.346;2023-11-21T11:25:27;14.07;;;7.82;;
66020;SDS011;52789;59.980;30.346;2023-11-21T11:28:14;11.63;;;7.65;;
66020;SDS011;52789;59.980;30.346;2023-11-21T11:30:59;18.27;;;8.80;;
66020;SDS011;52789;59.980;30.346;2023-11-21T11:36:28;12.85;;;7.22;;
66020;SDS011;52789;59.980;30.346;2023-11-21T11:38:59;11.07;;;8.07;;
66020;SDS011;52789;59.980;30.346;2023-11-21T11:41:30;12.88;;;7.68;;
66020;SDS011;52789;59.980;30.346;2023-11-21T11:44:02;9.85;;;7.07;;
66020;SDS011;52789;59.980;30.346;2023-11-21T11:46:42;9.52;;;6.35;;
66020;SDS011;52789;59.980;30.346;2023-11-21T11:49:24;10.38;;;7.63;;
66020;SDS011;52789;59.980;30.346;2023-11-21T11:54:55;9.60;;;6.43;;
66020;SDS011;52789;59.980;30.346;2023-11-21T11:57:24;8.30;;;6.33;;
66020;SDS011;52789;59.980;30.346;2023-11-21T12:02:40;14.18;;;5.97;;
66020;SDS011;52789;59.980;30.346;2023-11-21T12:05:09;9.55;;;5.80;;
66020;SDS011;52789;59.980;30.346;2023-11-21T12:07:46;11.13;;;6.78;;
66020;SDS011;52789;59.980;30.346;2023-11-21T12:10:17;10.05;;;6.82;;
66020;SDS011;52789;59.980;30.346;2023-11-21T12:12:45;10.27;;;5.95;;
66020;SDS011;52789;59.980;30.346;2023-11-21T12:15:12;10.32;;;6.80;;
66020;SDS011;52789;59.980;30.346;2023-11-21T12:17:39;8.55;;;5.88;;
66020;SDS011;52789;59.980;30.346;2023-11-21T12:20:13;9.90;;;6.38;;
66020;SDS011;52789;59.980;30.346;2023-11-21T12:22:41;8.27;;;5.97;;
66020;SDS011;52789;59.980;30.346;2023-11-21T12:25:41;8.90;;;6.00;;
66020;SDS011;52789;59.980;30.346;2023-11-21T12:30:36;8.68;;;5.88;;
66020;SDS011;52789;59.980;30.346;2023-11-21T12:33:03;12.55;;;6.15;;
66020;SDS011;52789;59.980;30.346;2023-11-21T12:35:33;8.75;;;5.10;;
66020;SDS011;52789;59.980;30.346;2023-11-21T12:38:00;6.88;;;5.30;;
66020;SDS011;52789;59.980;30.346;2023-11-21T12:40:30;7.07;;;5.18;;
66020;SDS011;52789;59.980;30.346;2023-11-21T12:42:56;7.22;;;4.88;;
66020;SDS011;52789;59.980;30.346;2023-11-21T12:45:25;6.03;;;4.38;;
66020;SDS011;52789;59.980;30.346;2023-11-21T12:55:31;9.05;;;5.38;;
66020;SDS011;52789;59.980;30.346;2023-11-21T12:57:59;6.72;;;5.40;;
66020;SDS011;52789;59.980;30.346;2023-11-21T13:00:37;9.50;;;6.57;;
66020;SDS011;52789;59.980;30.346;2023-11-21T13:03:22;5.68;;;4.60;;
66020;SDS011;52789;59.980;30.346;2023-11-21T13:05:51;9.13;;;5.35;;
66020;SDS011;52789;59.980;30.346;2023-11-21T13:10:51;7.70;;;5.07;;
66020;SDS011;52789;59.980;30.346;2023-11-21T13:13:20;7.35;;;4.70;;
66020;SDS011;52789;59.980;30.346;2023-11-21T13:15:55;8.02;;;5.80;;
66020;SDS011;52789;59.980;30.346;2023-11-21T13:18:26;8.27;;;5.20;;
66020;SDS011;52789;59.980;30.346;2023-11-21T13:20:53;8.00;;;4.80;;
66020;SDS011;52789;59.980;30.346;2023-11-21T13:23:20;6.65;;;5.13;;
66020;SDS011;52789;59.980;30.346;2023-11-21T13:25:57;7.68;;;5.13;;
66020;SDS011;52789;59.980;30.346;2023-11-21T13:28:25;11.02;;;6.68;;
66020;SDS011;52789;59.980;30.346;2023-11-21T13:30:57;6.60;;;4.80;;
66020;SDS011;52789;59.980;30.346;2023-11-21T13:33:23;11.93;;;5.93;;
66020;SDS011;52789;59.980;30.346;2023-11-21T13:35:53;8.25;;;5.35;;
66020;SDS011;52789;59.980;30.346;2023-11-21T13:38:23;9.65;;;5.53;;
66020;SDS011;52789;59.980;30.346;2023-11-21T13:40:50;7.07;;;4.85;;
66020;SDS011;52789;59.980;30.346;2023-11-21T13:43:24;12.60;;;5.03;;
66020;SDS011;52789;59.980;30.346;2023-11-21T13:45:51;10.38;;;6.82;;
66020;SDS011;52789;59.980;30.346;2023-11-21T13:48:32;7.93;;;4.55;;
66020;SDS011;52789;59.980;30.346;2023-11-21T13:51:10;6.72;;;4.90;;
66020;SDS011;52789;59.980;30.346;2023-11-21T13:53:46;5.90;;;4.82;;
66020;SDS011;52789;59.980;30.346;2023-11-21T13:56:18;5.95;;;5.30;;
66020;SDS011;52789;59.980;30.346;2023-11-21T13:58:52;5.97;;;4.88;;
66020;SDS011;52789;59.980;30.346;2023-11-21T14:01:25;6.25;;;4.55;;
66020;SDS011;52789;59.980;30.346;2023-11-21T14:04:14;9.38;;;4.80;;
66020;SDS011;52789;59.980;30.346;2023-11-21T14:06:40;6.77;;;4.90;;
66020;SDS011;52789;59.980;30.346;2023-11-21T14:09:14;5.78;;;4.78;;
66020;SDS011;52789;59.980;30.346;2023-11-21T14:11:56;8.05;;;5.63;;
66020;SDS011;52789;59.980;30.346;2023-11-21T14:14:26;7.07;;;4.70;;
66020;SDS011;52789;59.980;30.346;2023-11-21T14:16:55;7.60;;;4.72;;
66020;SDS011;52789;59.980;30.346;2023-11-21T14:19:22;7.03;;;5.13;;
66020;SDS011;52789;59.980;30.346;2023-11-21T14:21:55;5.07;;;3.95;;
66020;SDS011;52789;59.980;30.346;2023-11-21T14:24:24;6.97;;;4.30;;
66020;SDS011;52789;59.980;30.346;2023-11-21T14:26:51;7.70;;;4.50;;
66020;SDS011;52789;59.980;30.346;2023-11-21T14:29:17;8.10;;;4.33;;
66020;SDS011;52789;59.980;30.346;2023-11-21T14:31:48;4.80;;;4.00;;
66020;SDS011;52789;59.980;30.346;2023-11-21T14:34:16;4.70;;;3.70;;
66020;SDS011;52789;59.980;30.346;2023-11-21T14:36:43;5.35;;;4.35;;
66020;SDS011;52789;59.980;30.346;2023-11-21T14:39:10;12.77;;;5.35;;
66020;SDS011;52789;59.980;30.346;2023-11-21T14:41:56;7.55;;;4.50;;
66020;SDS011;52789;59.980;30.346;2023-11-21T14:44:36;6.10;;;4.07;;
66020;SDS011;52789;59.980;30.346;2023-11-21T14:47:06;5.63;;;3.65;;
66020;SDS011;52789;59.980;30.346;2023-11-21T14:49:43;3.78;;;3.38;;
66020;SDS011;52789;59.980;30.346;2023-11-21T14:55:30;6.05;;;3.63;;